Time;durP1;ratioP1;P1;durP2;ratioP2;P2;SDS_P1;SDS_P2;PMS_P1;PMS_P2;Temp;Humidity;BMP_temperature;BMP_pressure;BME280_temperature;BME280_humidity;BME280_pressure;Samples;Min_cycle;Max_cycle;Signal;HPM_P1;HPM_P2
2021/05/30 00:01:38;;;;;;;23.38;13.88;;;;;;;8.17;74.82;97462.78;1774670;79;25826;-80
2021/05/30 00:04:05;;;;;;;21.60;14.28;;;;;;;8.21;74.87;97469.95;1787751;79;25633;-80
2021/05/30 00:06:33;;;;;;;46.92;21.33;;;;;;;8.23;74.87;97467.36;1774785;79;27387;-80
2021/05/30 00:09:00;;;;;;;48.40;22.05;;;;;;;8.26;74.89;97460.26;1783873;79;25677;-81
2021/05/30 00:11:27;;;;;;;47.95;22.35;;;;;;;8.28;74.91;97463.59;1794733;79;25679;-80
2021/05/30 00:13:55;;;;;;;44.93;21.80;;;;;;;8.29;74.86;97459.88;1781934;79;25838;-80
2021/05/30 00:16:22;;;;;;;28.25;15.95;;;;;;;8.27;74.95;97456.55;1769222;79;26318;-80
2021/05/30 00:18:48;;;;;;;22.48;14.03;;;;;;;8.27;75.02;97457.89;1768462;79;28273;-80
2021/05/30 00:21:15;;;;;;;19.73;13.22;;;;;;;8.29;75.02;97455.01;1787013;79;26495;-80
2021/05/30 00:23:42;;;;;;;20.65;12.65;;;;;;;8.32;75.03;97449.28;1774274;79;26310;-80
2021/05/30 00:26:08;;;;;;;16.52;11.68;;;;;;;8.35;75.08;97445.34;1763057;79;25612;-80
2021/05/30 00:28:35;;;;;;;22.37;13.05;;;;;;;8.37;75.07;97450.84;1773733;79;26580;-81
2021/05/30 00:31:02;;;;;;;20.60;13.62;;;;;;;8.36;75.14;97442.97;1797718;79;27440;-80
2021/05/30 00:33:28;;;;;;;19.98;13.32;;;;;;;8.42;75.17;97443.55;1760717;79;25669;-79
2021/05/30 00:35:55;;;;;;;20.50;12.78;;;;;;;8.44;75.14;97444.19;1770976;79;25595;-80
2021/05/30 00:38:22;;;;;;;23.47;13.38;;;;;;;8.45;75.08;97443.95;1791435;79;25893;-79
2021/05/30 00:40:48;;;;;;;22.93;13.72;;;;;;;8.39;75.07;97447.97;1788426;79;25577;-80
2021/05/30 00:43:15;;;;;;;26.05;16.23;;;;;;;8.29;75.09;97441.56;1779487;79;27445;-80
2021/05/30 00:45:41;;;;;;;25.48;15.32;;;;;;;8.27;75.28;97441.75;1770161;79;25621;-79
2021/05/30 00:48:08;;;;;;;22.60;13.05;;;;;;;8.30;75.36;97444.57;1791956;79;25610;-79
2021/05/30 00:50:35;;;;;;;23.05;12.25;;;;;;;8.33;75.43;97439.35;1770468;79;25681;-80
2021/05/30 00:53:02;;;;;;;20.60;12.85;;;;;;;8.34;75.49;97436.95;1796857;79;25667;-79
2021/05/30 00:55:28;;;;;;;20.85;12.75;;;;;;;8.36;75.51;97440.28;1786986;79;27451;-80
2021/05/30 00:57:55;;;;;;;21.85;13.95;;;;;;;8.40;75.53;97436.18;1761300;79;25711;-79
2021/05/30 01:00:23;;;;;;;26.70;14.68;;;;;;;8.41;75.67;97447.26;1762345;79;25575;-80
2021/05/30 01:02:49;;;;;;;30.52;14.73;;;;;;;8.36;75.79;97444.31;1778730;79;25741;-79
2021/05/30 01:05:16;;;;;;;27.65;15.63;;;;;;;8.36;75.76;97435.73;1789196;79;25598;-79
2021/05/30 01:07:45;;;;;;;25.72;16.25;;;;;;;8.40;75.81;97441.05;1762974;79;27459;-80
2021/05/30 01:10:29;;;;;;;33.67;18.52;;;;;;;8.40;75.95;97441.56;1785977;79;25581;-79
2021/05/30 01:12:57;;;;;;;30.72;19.82;;;;;;;8.37;75.92;97441.95;1794354;79;25628;-79
2021/05/30 01:15:26;;;;;;;37.83;22.30;;;;;;;8.40;76.12;97445.08;1782047;79;26362;-80
2021/05/30 01:17:55;;;;;;;42.33;25.43;;;;;;;8.37;76.08;97447.33;1763557;79;25544;-81
2021/05/30 01:20:24;;;;;;;29.75;19.67;;;;;;;8.39;76.15;97443.93;1757142;79;28275;-80
2021/05/30 01:22:52;;;;;;;31.85;19.98;;;;;;;8.38;76.22;97446.30;1800194;79;25566;-81
2021/05/30 01:25:22;;;;;;;25.55;17.20;;;;;;;8.39;76.19;97450.14;1781176;79;26546;-81
2021/05/30 01:27:50;;;;;;;27.77;17.23;;;;;;;8.43;76.22;97449.24;1765952;79;25571;-80
2021/05/30 01:30:20;;;;;;;20.85;14.73;;;;;;;8.47;76.22;97441.08;1788385;79;25549;-80
2021/05/30 01:32:48;;;;;;;27.95;19.32;;;;;;;8.49;76.17;97431.78;1790079;79;27261;-80
2021/05/30 01:35:15;;;;;;;28.62;19.05;;;;;;;8.53;76.17;97438.95;1797435;79;25571;-80
2021/05/30 01:37:42;;;;;;;28.65;18.92;;;;;;;8.55;76.12;97435.05;1768628;79;25697;-80
2021/05/30 01:40:11;;;;;;;33.25;19.12;;;;;;;8.57;76.17;97438.34;1766659;79;25721;-80
2021/05/30 01:42:38;;;;;;;27.30;18.42;;;;;;;8.53;76.22;97434.92;1770324;79;25709;-80
2021/05/30 01:45:06;;;;;;;25.40;18.17;;;;;;;8.50;76.35;97439.34;1764424;79;27432;-80
2021/05/30 01:47:38;;;;;;;27.27;17.52;;;;;;;8.48;76.42;97442.23;1765782;79;25563;-80
2021/05/30 01:50:09;;;;;;;26.23;17.77;;;;;;;8.52;76.54;97438.64;1795092;79;34719;-80
2021/05/30 01:52:36;;;;;;;26.97;18.90;;;;;;;8.51;76.57;97436.97;1775885;79;25619;-80
2021/05/30 01:55:06;;;;;;;28.47;18.90;;;;;;;8.55;76.54;97444.98;1763234;79;25610;-80
2021/05/30 01:57:46;;;;;;;29.75;18.98;;;;;;;8.58;76.49;97440.52;1788232;79;27321;-80
2021/05/30 02:00:15;;;;;;;28.45;18.45;;;;;;;8.56;76.55;97436.71;1788126;79;25786;-80
2021/05/30 02:02:45;;;;;;;29.48;19.25;;;;;;;8.51;76.50;97443.70;1788208;79;25562;-79
2021/05/30 02:05:13;;;;;;;30.68;19.05;;;;;;;8.52;76.64;97437.30;1768204;79;25864;-80
2021/05/30 02:07:40;;;;;;;28.40;18.27;;;;;;;8.50;76.65;97433.45;1761349;79;25619;-81
2021/05/30 02:10:14;;;;;;;30.40;19.87;;;;;;;8.50;76.71;97435.31;1790153;79;27429;-80
2021/05/30 02:12:47;;;;;;;27.20;19.37;;;;;;;8.51;76.70;97432.94;1765685;79;25810;-80
2021/05/30 02:17:45;;;;;;;31.62;19.70;;;;;;;8.54;76.70;97439.28;1668027;83;26319;-79
2021/05/30 02:20:14;;;;;;;32.75;18.65;;;;;;;8.53;76.74;97429.54;1674808;83;25755;-80
2021/05/30 02:22:40;;;;;;;26.90;18.40;;;;;;;8.56;76.71;97443.95;1674966;83;27345;-81
2021/05/30 02:25:11;;;;;;;28.87;19.20;;;;;;;8.57;76.69;97446.96;1674692;83;25635;-79
2021/05/30 02:27:38;;;;;;;24.00;17.75;;;;;;;8.57;76.79;97441.58;1667856;83;25219;-79
2021/05/30 02:30:07;;;;;;;28.90;18.52;;;;;;;8.56;76.79;97441.26;1667607;84;25647;-79
2021/05/30 02:32:33;;;;;;;27.02;18.15;;;;;;;8.59;76.84;97447.57;1667915;84;25282;-79
2021/05/30 02:35:00;;;;;;;25.32;18.15;;;;;;;8.63;76.86;97444.81;1674738;83;27993;-78
2021/05/30 02:37:27;;;;;;;24.00;17.37;;;;;;;8.65;76.82;97444.10;1674262;83;25867;-79
2021/05/30 02:39:53;;;;;;;25.60;17.75;;;;;;;8.67;76.80;97440.70;1679075;83;26235;-79
2021/05/30 02:42:20;;;;;;;24.07;15.72;;;;;;;8.69;76.75;97445.38;1674821;83;25749;-79
2021/05/30 02:44:46;;;;;;;24.05;16.30;;;;;;;8.70;76.76;97444.32;1667629;83;25608;-78
2021/05/30 02:47:13;;;;;;;22.95;16.35;;;;;;;8.74;76.71;97448.80;1669451;83;28562;-79
2021/05/30 02:49:40;;;;;;;22.15;15.95;;;;;;;8.76;76.68;97447.58;1673028;83;25687;-79
2021/05/30 02:52:06;;;;;;;24.27;15.88;;;;;;;8.75;76.66;97439.19;1674750;83;25675;-79
2021/05/30 02:54:33;;;;;;;22.35;15.30;;;;;;;8.75;76.77;97441.88;1674752;83;25881;-78
2021/05/30 02:56:59;;;;;;;21.70;14.95;;;;;;;8.74;76.78;97438.87;1674647;83;25867;-79
2021/05/30 02:59:26;;;;;;;21.12;16.02;;;;;;;8.72;76.72;97440.92;1668413;83;27408;-79
2021/05/30 03:01:53;;;;;;;20.35;14.07;;;;;;;8.75;76.71;97437.84;1664469;83;25636;-79
2021/05/30 03:04:19;;;;;;;18.80;14.07;;;;;;;8.77;76.75;97431.75;1670105;83;25694;-79
2021/05/30 03:06:46;;;;;;;19.57;15.45;;;;;;;8.76;76.79;97435.47;1670722;83;25876;-80
2021/05/30 03:09:12;;;;;;;23.40;14.03;;;;;;;8.74;76.81;97436.17;1667483;84;25621;-79
2021/05/30 03:11:41;;;;;;;21.97;14.33;;;;;;;8.77;76.86;97441.17;1667600;83;27316;-80
2021/05/30 03:14:08;;;;;;;21.42;15.63;;;;;;;8.82;76.85;97440.04;1667431;84;25656;-79
2021/05/30 03:16:34;;;;;;;19.62;13.75;;;;;;;8.82;76.84;97442.73;1677347;83;25607;-78
2021/05/30 03:19:01;;;;;;;21.62;15.98;;;;;;;8.78;76.83;97437.45;1682387;83;25930;-79
2021/05/30 03:21:28;;;;;;;20.35;15.30;;;;;;;8.81;76.83;97435.71;1669873;84;25718;-79
2021/05/30 03:23:55;;;;;;;20.40;15.38;;;;;;;8.83;76.85;97437.66;1665372;83;27337;-79
2021/05/30 03:26:21;;;;;;;20.02;15.05;;;;;;;8.85;76.84;97438.30;1665319;83;25640;-79
2021/05/30 03:28:48;;;;;;;20.88;15.03;;;;;;;8.88;76.85;97433.88;1665114;83;25715;-80
2021/05/30 03:31:15;;;;;;;21.27;14.63;;;;;;;8.89;76.88;97436.05;1665338;83;25750;-79
2021/05/30 03:33:41;;;;;;;18.00;14.28;;;;;;;8.95;76.88;97446.00;1665132;83;25660;-78
2021/05/30 03:36:13;;;;;;;21.40;15.85;;;;;;;8.98;76.81;97442.41;1690034;83;27347;-79
2021/05/30 03:38:36;;;;;;;21.55;14.75;;;;;;;9.03;76.79;97442.64;1664586;83;25675;-79
2021/05/30 03:41:06;;;;;;;21.05;14.30;;;;;;;9.07;76.70;97448.95;1665228;83;25603;-79
2021/05/30 03:43:33;;;;;;;19.55;14.53;;;;;;;9.06;76.67;97447.32;1667735;84;25729;-79
2021/05/30 03:46:01;;;;;;;17.07;13.90;;;;;;;9.00;76.71;97443.55;1664912;84;25250;-79
2021/05/30 03:48:27;;;;;;;21.95;14.63;;;;;;;8.93;76.77;97452.96;1664940;83;27558;-79
2021/05/30 03:50:54;;;;;;;21.87;14.98;;;;;;;8.95;76.95;97448.19;1665103;83;25620;-80
2021/05/30 03:53:22;;;;;;;19.87;14.98;;;;;;;8.98;77.05;97454.52;1652628;83;25274;-79
2021/05/30 03:55:50;;;;;;;20.72;14.07;;;;;;;9.02;77.05;97458.48;1664999;84;25685;-79
2021/05/30 03:58:17;;;;;;;19.17;13.68;;;;;;;9.08;76.99;97460.05;1646542;83;25676;-79
2021/05/30 04:00:44;;;;;;;19.40;14.23;;;;;;;9.06;76.91;97460.78;1665389;83;28067;-79
2021/05/30 04:03:11;;;;;;;20.12;13.88;;;;;;;9.08;76.92;97458.18;1665231;83;25734;-79
2021/05/30 04:05:37;;;;;;;18.65;13.28;;;;;;;9.10;76.93;97457.47;1665495;83;26410;-79
2021/05/30 04:08:04;;;;;;;17.77;13.15;;;;;;;9.13;76.91;97463.81;1665198;83;26483;-79
2021/05/30 04:10:31;;;;;;;21.55;14.23;;;;;;;9.17;76.97;97465.08;1665590;83;25720;-80
2021/05/30 04:12:58;;;;;;;16.70;13.30;;;;;;;9.23;76.99;97466.12;1665352;83;27487;-80
2021/05/30 04:15:25;;;;;;;19.50;12.07;;;;;;;9.27;76.87;97471.44;1665519;83;25229;-80
2021/05/30 04:17:52;;;;;;;16.57;11.83;;;;;;;9.27;76.76;97468.73;1677880;83;25691;-79
2021/05/30 04:20:20;;;;;;;15.68;12.65;;;;;;;9.31;76.73;97468.11;1682487;83;25715;-80
2021/05/30 04:22:48;;;;;;;17.82;12.85;;;;;;;9.35;76.78;97462.65;1682584;83;25744;-81
2021/05/30 04:25:16;;;;;;;18.75;13.55;;;;;;;9.40;76.73;97466.09;1682338;83;28139;-80
2021/05/30 04:27:43;;;;;;;18.62;14.10;;;;;;;9.44;76.54;97464.63;1682365;83;25809;-80
2021/05/30 04:30:12;;;;;;;17.77;12.82;;;;;;;9.46;76.51;97466.61;1682420;83;25751;-80
2021/05/30 04:32:39;;;;;;;16.25;12.58;;;;;;;9.50;76.44;97467.88;1682554;83;26425;-81
2021/05/30 04:35:08;;;;;;;17.75;12.15;;;;;;;9.54;76.32;97479.89;1682641;83;25666;-79
2021/05/30 04:37:34;;;;;;;19.67;12.70;;;;;;;9.55;76.19;97470.78;1682193;83;27919;-80
2021/05/30 04:40:01;;;;;;;16.70;13.03;;;;;;;9.59;76.26;97476.60;1681915;83;25590;-80
2021/05/30 04:42:28;;;;;;;16.02;12.28;;;;;;;9.61;76.19;97472.67;1682390;83;26303;-79
2021/05/30 04:44:54;;;;;;;18.23;13.20;;;;;;;9.64;76.18;97471.45;1682378;83;26625;-80
2021/05/30 04:47:21;;;;;;;22.25;14.00;;;;;;;9.59;76.03;97470.70;1682539;83;25591;-79
2021/05/30 04:49:47;;;;;;;18.32;13.78;;;;;;;9.63;76.15;97476.00;1682612;83;28005;-79
2021/05/30 04:52:14;;;;;;;18.42;14.65;;;;;;;9.65;76.13;97473.94;1682392;83;25675;-81
2021/05/30 04:54:41;;;;;;;21.10;14.93;;;;;;;9.69;76.15;97472.48;1682443;83;25663;-79
2021/05/30 04:57:08;;;;;;;21.62;15.48;;;;;;;9.66;75.99;97474.23;1682207;83;26475;-79
2021/05/30 04:59:34;;;;;;;21.93;14.75;;;;;;;9.70;76.02;97482.23;1682410;83;25652;-80
2021/05/30 05:02:01;;;;;;;23.45;15.65;;;;;;;9.75;76.04;97479.77;1682467;83;27433;-78
2021/05/30 05:04:27;;;;;;;22.42;15.98;;;;;;;9.80;76.05;97472.39;1682352;83;25680;-79
2021/05/30 05:06:54;;;;;;;21.62;15.93;;;;;;;9.86;75.98;97469.41;1682477;83;25717;-79
2021/05/30 05:09:21;;;;;;;20.72;16.62;;;;;;;9.91;75.90;97469.61;1682362;83;25739;-79
2021/05/30 05:11:47;;;;;;;19.45;15.20;;;;;;;9.92;75.73;97468.05;1682328;83;25628;-80
2021/05/30 05:14:14;;;;;;;20.12;14.90;;;;;;;9.95;75.79;97470.86;1682382;83;27288;-79
2021/05/30 05:16:40;;;;;;;19.92;15.95;;;;;;;10.00;75.67;97471.09;1682456;83;25675;-79
2021/05/30 05:19:07;;;;;;;23.32;16.23;;;;;;;10.06;75.60;97481.04;1685195;83;25644;-79
2021/05/30 05:21:34;;;;;;;21.77;16.67;;;;;;;10.09;75.62;97479.28;1689163;83;25758;-79
2021/05/30 05:24:00;;;;;;;22.65;16.27;;;;;;;10.12;75.46;97473.48;1682333;83;25529;-79
2021/05/30 05:26:27;;;;;;;19.62;16.07;;;;;;;10.17;75.52;97478.24;1682458;83;27336;-78
2021/05/30 05:28:54;;;;;;;22.30;16.97;;;;;;;10.22;75.52;97479.33;1682340;83;25608;-80
2021/05/30 05:31:21;;;;;;;18.05;15.55;;;;;;;10.28;75.49;97478.48;1682453;83;25621;-80
2021/05/30 05:33:48;;;;;;;20.60;15.95;;;;;;;10.31;75.51;97478.59;1682493;83;25684;-79
2021/05/30 05:36:16;;;;;;;21.60;16.37;;;;;;;10.32;75.53;97482.44;1682496;83;25744;-80
2021/05/30 05:38:43;;;;;;;20.90;16.42;;;;;;;10.30;75.44;97484.51;1682456;83;28120;-79
2021/05/30 05:41:10;;;;;;;19.73;15.45;;;;;;;10.26;75.24;97487.33;1682358;83;25717;-80
2021/05/30 05:43:37;;;;;;;19.75;16.30;;;;;;;10.31;75.14;97485.34;1682450;83;25659;-81
2021/05/30 05:46:04;;;;;;;19.75;15.35;;;;;;;10.33;75.28;97487.31;1682387;83;26374;-80
2021/05/30 05:48:30;;;;;;;21.73;15.85;;;;;;;10.31;75.19;97494.27;1682455;83;25705;-80
2021/05/30 05:50:57;;;;;;;19.27;15.28;;;;;;;10.26;75.19;97487.33;1682450;83;28795;-80
2021/05/30 05:53:23;;;;;;;22.17;15.48;;;;;;;10.31;75.28;97498.83;1682492;83;25675;-82
2021/05/30 05:55:50;;;;;;;19.35;14.00;;;;;;;10.34;75.12;97491.16;1682341;83;25628;-81
2021/05/30 05:58:18;;;;;;;20.60;14.85;;;;;;;10.31;75.02;97488.03;1686744;83;25686;-82
2021/05/30 06:00:46;;;;;;;20.70;14.70;;;;;;;10.34;74.90;97494.37;1682595;83;25623;-81
2021/05/30 06:03:13;;;;;;;18.32;14.78;;;;;;;10.34;74.72;97491.16;1684194;83;27474;-82
2021/05/30 06:05:40;;;;;;;18.32;15.15;;;;;;;10.33;74.68;97492.19;1682412;84;25597;-83
2021/05/30 06:08:06;;;;;;;18.95;15.68;;;;;;;10.39;74.70;97495.91;1682508;83;25251;-81
2021/05/30 06:10:33;;;;;;;21.35;15.83;;;;;;;10.45;74.70;97498.63;1682573;83;26504;-80
2021/05/30 06:13:11;;;;;;;16.17;14.47;;;;;;;10.53;74.52;97502.14;1682609;83;25685;-83
2021/05/30 06:15:42;;;;;;;17.30;14.35;;;;;;;10.58;74.29;97495.61;1682531;83;27326;-82
2021/05/30 06:18:15;;;;;;;18.75;15.85;;;;;;;10.59;73.81;97502.67;1682872;83;25756;-81
2021/05/30 06:20:40;;;;;;;19.12;15.65;;;;;;;10.56;73.90;97503.91;1685010;83;25642;-82
2021/05/30 06:23:07;;;;;;;19.45;15.28;;;;;;;10.60;73.67;97504.33;1680718;83;25795;-81
2021/05/30 06:25:33;;;;;;;18.82;15.53;;;;;;;10.67;73.55;97507.32;1682557;83;25624;-82
2021/05/30 06:28:00;;;;;;;17.73;15.83;;;;;;;10.69;73.71;97505.77;1682347;83;27507;-80
2021/05/30 06:30:36;;;;;;;19.45;14.83;;;;;;;10.73;73.90;97512.42;1681948;83;25811;-83
2021/05/30 06:33:05;;;;;;;18.70;15.68;;;;;;;10.85;73.86;97512.61;1682002;83;25729;-80
2021/05/30 06:35:32;;;;;;;17.92;14.73;;;;;;;11.00;73.64;97514.02;1658457;84;26018;-82
2021/05/30 06:38:02;;;;;;;17.55;14.75;;;;;;;11.14;73.39;97515.64;1656054;84;25665;-82
2021/05/30 06:40:30;;;;;;;18.27;15.25;;;;;;;11.28;73.26;97518.31;1657532;84;27343;-80
2021/05/30 06:42:56;;;;;;;15.65;13.93;;;;;;;11.40;72.93;97515.25;1657621;84;26259;-81
2021/05/30 06:45:23;;;;;;;17.85;14.20;;;;;;;11.47;72.69;97516.07;1656301;84;26337;-79
2021/05/30 06:47:51;;;;;;;19.92;15.25;;;;;;;11.54;72.71;97515.51;1650403;84;25694;-81
2021/05/30 06:50:17;;;;;;;18.07;14.55;;;;;;;11.61;72.56;97516.30;1650303;84;25727;-80
2021/05/30 06:52:44;;;;;;;18.35;13.85;;;;;;;11.68;72.28;97519.81;1650488;84;27321;-82
2021/05/30 06:55:13;;;;;;;16.42;13.35;;;;;;;11.69;72.02;97522.83;1650406;86;25956;-81
2021/05/30 06:57:40;;;;;;;18.00;13.93;;;;;;;11.68;71.89;97511.70;1649838;84;25730;-79
2021/05/30 07:00:07;;;;;;;17.65;13.43;;;;;;;11.65;72.07;97520.23;1631531;84;26512;-80
2021/05/30 07:02:34;;;;;;;18.65;13.75;;;;;;;11.67;71.86;97517.33;1650560;85;25633;-79
2021/05/30 07:05:00;;;;;;;15.23;13.10;;;;;;;11.68;71.69;97511.70;1649815;84;27331;-81
2021/05/30 07:07:27;;;;;;;14.80;13.18;;;;;;;11.65;71.71;97512.12;1647315;85;25674;-80
2021/05/30 07:09:54;;;;;;;19.55;14.43;;;;;;;11.57;71.64;97511.03;1638185;84;25732;-80
2021/05/30 07:12:20;;;;;;;16.42;13.10;;;;;;;11.42;71.59;97509.11;1650485;84;25710;-80
2021/05/30 07:14:47;;;;;;;15.40;13.75;;;;;;;11.34;71.74;97510.71;1632307;85;25784;-81
2021/05/30 07:17:15;;;;;;;20.00;15.23;;;;;;;11.27;71.76;97519.34;1650052;85;27501;-80
2021/05/30 07:19:41;;;;;;;18.67;15.08;;;;;;;11.18;71.98;97520.94;1651481;85;25260;-80
2021/05/30 07:22:08;;;;;;;18.70;15.98;;;;;;;11.15;72.31;97522.70;1657491;84;25281;-80
2021/05/30 07:24:35;;;;;;;24.40;18.00;;;;;;;11.10;72.42;97536.04;1652367;85;26322;-80
2021/05/30 07:27:01;;;;;;;28.65;19.48;;;;;;;11.13;72.55;97536.94;1655943;85;25656;-80
2021/05/30 07:29:28;;;;;;;24.80;18.12;;;;;;;11.18;72.62;97541.20;1656102;86;27323;-83
2021/05/30 07:31:54;;;;;;;20.75;16.20;;;;;;;11.15;72.68;97542.97;1651895;85;25678;-80
2021/05/30 07:34:21;;;;;;;18.98;15.25;;;;;;;11.06;72.71;97542.06;1640949;86;25636;-81
2021/05/30 07:36:48;;;;;;;19.15;15.80;;;;;;;11.06;72.95;97544.25;1638541;85;26530;-81
2021/05/30 07:39:14;;;;;;;21.97;16.73;;;;;;;11.09;73.02;97543.00;1639661;85;25552;-82
2021/05/30 07:41:41;;;;;;;21.75;16.97;;;;;;;11.09;73.04;97541.65;1639582;85;27391;-82
2021/05/30 07:44:07;;;;;;;20.92;17.48;;;;;;;10.98;73.06;97545.83;1638801;85;25682;-80
2021/05/30 07:46:34;;;;;;;24.40;16.40;;;;;;;10.97;73.29;97544.17;1638971;85;25809;-80
2021/05/30 07:49:00;;;;;;;24.07;17.65;;;;;;;11.03;73.47;97547.88;1639070;86;25756;-81
2021/05/30 07:51:27;;;;;;;22.67;17.27;;;;;;;11.05;73.52;97543.94;1637577;85;25665;-81
2021/05/30 07:53:54;;;;;;;20.23;15.75;;;;;;;10.94;73.62;97555.38;1621312;86;28038;-81
2021/05/30 07:56:20;;;;;;;21.65;16.07;;;;;;;10.82;73.88;97549.78;1643823;85;25715;-82
2021/05/30 07:58:47;;;;;;;25.32;19.02;;;;;;;10.82;74.05;97557.89;1638793;85;25359;-83
2021/05/30 08:01:13;;;;;;;20.52;16.85;;;;;;;10.90;74.23;97547.89;1638757;85;26410;-82
2021/05/30 08:03:42;;;;;;;21.23;16.82;;;;;;;10.96;74.12;97547.91;1638229;85;26344;-82
2021/05/30 08:06:08;;;;;;;20.48;16.50;;;;;;;11.03;74.08;97554.11;1641445;84;27543;-83
2021/05/30 08:08:35;;;;;;;20.82;17.32;;;;;;;11.08;74.14;97546.22;1661310;84;25541;-85
2021/05/30 08:11:02;;;;;;;21.33;17.67;;;;;;;11.10;74.00;97553.59;1657062;84;25773;-83
2021/05/30 08:13:28;;;;;;;19.00;15.80;;;;;;;11.12;74.12;97560.95;1654011;84;25725;-85
2021/05/30 08:15:55;;;;;;;19.05;15.90;;;;;;;11.15;74.10;97565.10;1654023;84;25867;-85
2021/05/30 08:18:21;;;;;;;19.02;16.48;;;;;;;11.11;74.11;97561.16;1654510;84;27257;-84
2021/05/30 08:20:48;;;;;;;19.77;16.48;;;;;;;11.10;74.19;97565.76;1655971;84;25623;-86
2021/05/30 08:23:15;;;;;;;20.23;17.77;;;;;;;11.05;74.29;97568.24;1656162;84;25727;-84
2021/05/30 08:25:42;;;;;;;21.80;18.25;;;;;;;11.01;74.61;97568.34;1649470;84;26246;-88
2021/05/30 08:28:11;;;;;;;20.97;16.67;;;;;;;10.98;74.79;97569.31;1648527;84;25730;-83
2021/05/30 08:30:39;;;;;;;17.20;14.45;;;;;;;11.01;74.68;97570.22;1648263;84;28160;-85
2021/05/30 08:33:06;;;;;;;18.12;13.58;;;;;;;11.03;74.48;97570.32;1650492;84;25887;-84
2021/05/30 08:35:33;;;;;;;15.50;13.18;;;;;;;11.06;74.39;97578.53;1651873;84;25602;-85
2021/05/30 08:37:59;;;;;;;14.98;13.28;;;;;;;11.10;74.39;97570.33;1656015;86;25691;-82
2021/05/30 08:40:26;;;;;;;15.90;12.95;;;;;;;11.12;74.33;97566.87;1651103;84;25654;-82
2021/05/30 08:42:53;;;;;;;15.20;13.20;;;;;;;11.16;74.24;97574.88;1654683;84;27487;-82
2021/05/30 08:45:20;;;;;;;15.08;13.43;;;;;;;11.21;74.25;97576.44;1654487;84;25763;-85
2021/05/30 08:47:47;;;;;;;13.78;11.97;;;;;;;11.25;74.15;97583.58;1654544;85;25697;-84
2021/05/30 08:50:14;;;;;;;15.80;12.75;;;;;;;11.30;74.11;97582.44;1654911;84;25878;-82
2021/05/30 08:52:42;;;;;;;15.08;12.93;;;;;;;11.34;74.06;97584.52;1655262;84;25651;-81
2021/05/30 08:55:11;;;;;;;16.97;13.20;;;;;;;11.38;74.14;97581.67;1654739;85;27877;-87
2021/05/30 08:57:39;;;;;;;15.95;12.30;;;;;;;11.40;74.04;97578.25;1655008;84;25644;-84
2021/05/30 09:00:10;;;;;;;15.15;12.37;;;;;;;11.41;73.92;97580.42;1671175;84;25707;-85
2021/05/30 09:02:36;;;;;;;15.03;13.10;;;;;;;11.41;73.98;97580.42;1670472;84;26563;-82
2021/05/30 09:05:07;;;;;;;14.90;13.08;;;;;;;11.47;74.04;97583.09;1670883;85;25834;-84
2021/05/30 09:07:50;;;;;;;17.25;13.70;;;;;;;11.50;74.28;97579.14;1671588;84;27404;-84
2021/05/30 09:10:23;;;;;;;14.68;11.97;;;;;;;11.55;74.27;97579.34;1670394;84;25714;-84
2021/05/30 09:13:05;;;;;;;15.38;12.93;;;;;;;11.52;74.01;97580.59;1670729;84;25693;-82
2021/05/30 09:18:23;;;;;;;17.15;13.85;;;;;;;11.48;73.93;97578.52;1600023;88;26301;-84
2021/05/30 09:21:03;;;;;;;17.98;14.05;;;;;;;11.44;74.00;97587.59;1570332;89;27452;-85
2021/05/30 09:23:38;;;;;;;20.05;16.35;;;;;;;11.35;73.96;97586.70;1568775;89;25765;-84
2021/05/30 09:26:17;;;;;;;15.90;13.65;;;;;;;11.16;74.17;97596.48;1574314;89;26584;-85
2021/05/30 09:29:10;;;;;;;13.83;11.70;;;;;;;11.10;74.47;97598.70;1571597;88;25715;-84
2021/05/30 09:31:58;;;;;;;14.68;10.65;;;;;;;11.10;74.54;97598.17;1538350;92;25982;-84
2021/05/30 09:34:36;;;;;;;9.30;7.47;;;;;;;11.02;74.72;97601.07;1565281;90;27351;-84
2021/05/30 09:37:05;;;;;;;7.67;6.12;;;;;;;11.00;74.53;97597.74;1565153;90;25759;-86
2021/05/30 09:39:45;;;;;;;10.03;8.43;;;;;;;10.98;74.48;97598.50;1565283;90;26422;-83
2021/05/30 09:42:33;;;;;;;10.40;9.00;;;;;;;11.05;74.36;97607.41;1565421;90;25945;-84
2021/05/30 09:45:10;;;;;;;13.78;10.90;;;;;;;11.10;74.40;97598.17;1565582;90;25644;-84
2021/05/30 09:47:45;;;;;;;15.50;12.78;;;;;;;11.09;74.86;97604.61;1565468;90;27351;-85
2021/05/30 09:50:20;;;;;;;17.77;14.03;;;;;;;11.13;75.17;97603.66;1565253;90;25744;-84
2021/05/30 09:52:52;;;;;;;19.05;15.32;;;;;;;11.22;75.19;97604.28;1574104;88;26412;-85
2021/05/30 09:55:26;;;;;;;19.07;14.83;;;;;;;11.26;75.05;97606.86;1570436;89;25760;-85
2021/05/30 09:58:18;;;;;;;18.32;14.83;;;;;;;11.32;74.94;97603.33;1570438;89;25858;-85
2021/05/30 10:00:59;;;;;;;16.60;13.85;;;;;;;11.40;75.08;97604.44;1585907;88;28122;-85
2021/05/30 10:03:26;;;;;;;16.67;13.55;;;;;;;11.47;75.08;97605.27;1613223;85;25646;-86
2021/05/30 10:05:53;;;;;;;15.55;13.90;;;;;;;11.50;74.89;97603.47;1630621;85;25216;-85
2021/05/30 10:08:22;;;;;;;18.30;15.45;;;;;;;11.53;74.95;97608.47;1645082;84;26399;-84
2021/05/30 10:10:49;;;;;;;18.98;14.07;;;;;;;11.55;75.09;97596.92;1663261;84;25816;-85
2021/05/30 10:13:16;;;;;;;15.55;13.58;;;;;;;11.62;74.91;97592.31;1663356;86;27396;-84
2021/05/30 10:15:43;;;;;;;17.82;13.72;;;;;;;11.70;74.88;97596.16;1663085;86;25763;-85
2021/05/30 10:18:28;;;;;;;16.42;13.65;;;;;;;11.71;74.73;97604.54;1663367;86;25669;-85
2021/05/30 10:20:56;;;;;;;18.10;15.40;;;;;;;11.77;74.79;97601.55;1661817;85;26221;-87
2021/05/30 10:23:23;;;;;;;17.10;14.93;;;;;;;11.80;75.10;97598.42;1663107;86;25708;-86
2021/05/30 10:25:50;;;;;;;15.70;13.38;;;;;;;11.90;75.07;97594.22;1663187;85;27567;-86
2021/05/30 10:28:21;;;;;;;19.05;13.88;;;;;;;12.03;74.78;97595.20;1662960;84;26271;-86
2021/05/30 10:30:50;;;;;;;15.85;13.38;;;;;;;12.13;74.84;97598.27;1663204;86;25754;-87
2021/05/30 10:33:27;;;;;;;18.60;13.72;;;;;;;12.22;75.10;97596.95;1663292;86;25764;-85
2021/05/30 10:35:54;;;;;;;15.55;12.20;;;;;;;12.25;75.05;97597.88;1662414;84;25668;-86
2021/05/30 10:38:42;;;;;;;13.28;11.80;;;;;;;12.37;74.88;97594.79;1646127;84;28012;-85
2021/05/30 10:41:18;;;;;;;12.18;10.43;;;;;;;12.52;74.49;97602.09;1663180;84;25545;-86
2021/05/30 10:43:49;;;;;;;11.33;8.93;;;;;;;12.65;74.06;97600.34;1663151;84;25720;-85
2021/05/30 10:46:18;;;;;;;10.25;9.08;;;;;;;12.80;73.78;97600.85;1663170;86;26499;-86
2021/05/30 10:49:08;;;;;;;10.90;9.00;;;;;;;12.95;73.67;97605.39;1663249;85;25673;-83
2021/05/30 10:51:45;;;;;;;10.65;8.53;;;;;;;13.14;73.44;97602.22;1652897;86;27579;-87
2021/05/30 10:54:13;;;;;;;8.83;7.00;;;;;;;13.30;73.12;97599.77;1663075;85;26180;-84
2021/05/30 10:56:47;;;;;;;9.88;8.35;;;;;;;13.48;72.45;97596.80;1658965;84;25308;-85
2021/05/30 10:59:20;;;;;;;11.43;7.65;;;;;;;13.57;72.37;97598.14;1658337;84;25755;-85
2021/05/30 11:01:51;;;;;;;10.10;7.65;;;;;;;13.67;72.11;97595.20;1663059;84;25245;-84
2021/05/30 11:04:29;;;;;;;11.55;7.35;;;;;;;13.81;71.85;97593.17;1662897;84;27535;-84
2021/05/30 11:07:22;;;;;;;9.78;6.85;;;;;;;13.96;71.38;97587.36;1646072;86;25708;-86
2021/05/30 11:09:57;;;;;;;11.12;7.00;;;;;;;14.08;71.12;97586.89;1663095;84;25617;-85
2021/05/30 11:12:29;;;;;;;8.25;6.72;;;;;;;14.27;71.12;97586.30;1662751;85;25695;-85
2021/05/30 11:15:19;;;;;;;8.35;7.15;;;;;;;14.37;70.66;97590.64;1662979;85;25757;-86
2021/05/30 11:17:55;;;;;;;7.20;6.40;;;;;;;14.50;70.60;97591.02;1663084;85;27287;-84
2021/05/30 11:20:44;;;;;;;7.17;6.40;;;;;;;14.48;70.33;97588.56;1675204;83;25763;-84
2021/05/30 11:23:19;;;;;;;6.60;5.92;;;;;;;14.48;69.58;97589.09;1682170;83;25658;-85
2021/05/30 11:25:55;;;;;;;7.60;6.35;;;;;;;14.37;69.71;97587.93;1682273;85;25659;-85
2021/05/30 11:28:27;;;;;;;7.78;5.62;;;;;;;14.29;69.57;97580.12;1682312;83;25695;-86
2021/05/30 11:31:09;;;;;;;7.45;5.58;;;;;;;14.36;69.20;97578.16;1682484;83;27346;-86
2021/05/30 11:33:43;;;;;;;9.78;5.67;;;;;;;14.41;69.59;97576.41;1682551;84;33796;-86
2021/05/30 11:36:20;;;;;;;7.00;5.90;;;;;;;14.57;69.12;97577.65;1671467;83;25707;-86